sensor_id;sensor_type;location;lat;lon;timestamp;P1;durP1;ratioP1;P2;durP2;ratioP2
42420;SDS011;28063;48.140;11.588;2022-07-03T00:01:49;4.05;;;2.55;;
42420;SDS011;28063;48.140;11.588;2022-07-03T00:04:15;2.45;;;2.25;;
42420;SDS011;28063;48.140;11.588;2022-07-03T00:06:40;3.67;;;2.60;;
42420;SDS011;28063;48.140;11.588;2022-07-03T00:09:06;2.78;;;2.55;;
42420;SDS011;28063;48.140;11.588;2022-07-03T00:11:32;2.35;;;2.10;;
42420;SDS011;28063;48.140;11.588;2022-07-03T00:13:58;3.60;;;2.92;;
42420;SDS011;28063;48.140;11.588;2022-07-03T00:16:24;3.28;;;2.50;;
42420;SDS011;28063;48.140;11.588;2022-07-03T00:18:50;2.70;;;2.50;;
42420;SDS011;28063;48.140;11.588;2022-07-03T00:21:19;2.80;;;2.15;;
42420;SDS011;28063;48.140;11.588;2022-07-03T00:24:32;2.58;;;2.38;;
42420;SDS011;28063;48.140;11.588;2022-07-03T00:26:51;3.72;;;2.88;;
42420;SDS011;28063;48.140;11.588;2022-07-03T00:29:22;2.40;;;2.08;;
42420;SDS011;28063;48.140;11.588;2022-07-03T00:31:51;2.22;;;2.03;;
42420;SDS011;28063;48.140;11.588;2022-07-03T00:34:17;2.90;;;2.42;;
42420;SDS011;28063;48.140;11.588;2022-07-03T00:36:45;2.75;;;2.22;;
42420;SDS011;28063;48.140;11.588;2022-07-03T00:39:12;2.55;;;2.30;;
42420;SDS011;28063;48.140;11.588;2022-07-03T00:41:37;3.05;;;2.22;;
42420;SDS011;28063;48.140;11.588;2022-07-03T00:44:03;2.60;;;2.20;;
42420;SDS011;28063;48.140;11.588;2022-07-03T00:46:29;2.60;;;2.40;;
42420;SDS011;28063;48.140;11.588;2022-07-03T00:48:55;2.60;;;2.40;;
42420;SDS011;28063;48.140;11.588;2022-07-03T00:51:23;2.55;;;2.33;;
42420;SDS011;28063;48.140;11.588;2022-07-03T00:53:51;3.42;;;2.42;;
42420;SDS011;28063;48.140;11.588;2022-07-03T00:56:30;3.15;;;2.85;;
42420;SDS011;28063;48.140;11.588;2022-07-03T00:58:57;5.18;;;3.47;;
42420;SDS011;28063;48.140;11.588;2022-07-03T01:01:29;4.28;;;3.47;;
42420;SDS011;28063;48.140;11.588;2022-07-03T01:07:06;4.75;;;3.28;;
42420;SDS011;28063;48.140;11.588;2022-07-03T01:09:42;3.75;;;3.33;;
42420;SDS011;28063;48.140;11.588;2022-07-03T01:15:44;4.68;;;4.13;;
42420;SDS011;28063;48.140;11.588;2022-07-03T01:23:59;3.65;;;3.10;;
42420;SDS011;28063;48.140;11.588;2022-07-03T01:26:36;3.85;;;3.28;;
42420;SDS011;28063;48.140;11.588;2022-07-03T01:29:09;3.38;;;3.00;;
42420;SDS011;28063;48.140;11.588;2022-07-03T01:31:43;3.05;;;2.60;;
42420;SDS011;28063;48.140;11.588;2022-07-03T01:34:13;3.70;;;2.90;;
42420;SDS011;28063;48.140;11.588;2022-07-03T01:36:41;3.05;;;2.75;;
42420;SDS011;28063;48.140;11.588;2022-07-03T01:39:10;2.65;;;2.45;;
42420;SDS011;28063;48.140;11.588;2022-07-03T01:41:36;1.88;;;1.77;;
42420;SDS011;28063;48.140;11.588;2022-07-03T01:44:02;3.10;;;2.75;;
42420;SDS011;28063;48.140;11.588;2022-07-03T01:46:31;2.60;;;2.40;;
42420;SDS011;28063;48.140;11.588;2022-07-03T01:48:58;6.30;;;3.10;;
42420;SDS011;28063;48.140;11.588;2022-07-03T01:51:25;4.13;;;2.40;;
42420;SDS011;28063;48.140;11.588;2022-07-03T01:53:52;3.22;;;2.92;;
42420;SDS011;28063;48.140;11.588;2022-07-03T01:56:19;3.13;;;2.70;;
42420;SDS011;28063;48.140;11.588;2022-07-03T01:58:46;4.05;;;2.70;;
42420;SDS011;28063;48.140;11.588;2022-07-03T02:09:05;4.20;;;3.65;;
42420;SDS011;28063;48.140;11.588;2022-07-03T02:11:35;4.20;;;3.80;;
42420;SDS011;28063;48.140;11.588;2022-07-03T02:19:18;5.32;;;4.32;;
42420;SDS011;28063;48.140;11.588;2022-07-03T02:21:54;5.80;;;4.28;;
42420;SDS011;28063;48.140;11.588;2022-07-03T02:24:22;7.03;;;4.10;;
42420;SDS011;28063;48.140;11.588;2022-07-03T02:26:55;4.28;;;3.33;;
42420;SDS011;28063;48.140;11.588;2022-07-03T02:29:31;3.83;;;3.08;;
42420;SDS011;28063;48.140;11.588;2022-07-03T02:32:04;3.60;;;3.30;;
42420;SDS011;28063;48.140;11.588;2022-07-03T02:34:35;3.72;;;3.00;;
42420;SDS011;28063;48.140;11.588;2022-07-03T02:37:06;4.60;;;3.22;;
42420;SDS011;28063;48.140;11.588;2022-07-03T02:52:20;3.58;;;2.70;;
42420;SDS011;28063;48.140;11.588;2022-07-03T02:55:02;3.78;;;2.80;;
42420;SDS011;28063;48.140;11.588;2022-07-03T02:57:43;2.67;;;2.47;;
42420;SDS011;28063;48.140;11.588;2022-07-03T03:00:11;2.42;;;2.20;;
42420;SDS011;28063;48.140;11.588;2022-07-03T03:05:20;2.15;;;1.98;;
42420;SDS011;28063;48.140;11.588;2022-07-03T03:10:35;2.63;;;2.30;;
42420;SDS011;28063;48.140;11.588;2022-07-03T03:15:32;2.25;;;2.13;;
42420;SDS011;28063;48.140;11.588;2022-07-03T03:18:20;3.25;;;2.30;;
42420;SDS011;28063;48.140;11.588;2022-07-03T03:20:48;1.88;;;1.77;;
42420;SDS011;28063;48.140;11.588;2022-07-03T03:23:24;2.90;;;2.47;;
42420;SDS011;28063;48.140;11.588;2022-07-03T03:26:09;2.45;;;2.05;;
42420;SDS011;28063;48.140;11.588;2022-07-03T03:28:36;2.17;;;1.95;;
42420;SDS011;28063;48.140;11.588;2022-07-03T03:31:02;1.85;;;1.70;;
42420;SDS011;28063;48.140;11.588;2022-07-03T03:33:33;1.98;;;1.85;;
42420;SDS011;28063;48.140;11.588;2022-07-03T03:36:03;1.70;;;1.60;;
42420;SDS011;28063;48.140;11.588;2022-07-03T03:38:29;1.50;;;1.40;;
42420;SDS011;28063;48.140;11.588;2022-07-03T03:40:55;3.63;;;1.73;;
42420;SDS011;28063;48.140;11.588;2022-07-03T03:43:21;2.70;;;1.85;;
42420;SDS011;28063;48.140;11.588;2022-07-03T03:45:48;1.85;;;1.75;;
42420;SDS011;28063;48.140;11.588;2022-07-03T03:48:16;1.60;;;1.50;;
42420;SDS011;28063;48.140;11.588;2022-07-03T03:50:42;2.25;;;1.98;;
42420;SDS011;28063;48.140;11.588;2022-07-03T03:53:10;1.88;;;1.73;;
42420;SDS011;28063;48.140;11.588;2022-07-03T03:55:36;1.67;;;1.58;;
42420;SDS011;28063;48.140;11.588;2022-07-03T03:58:02;1.58;;;1.48;;
42420;SDS011;28063;48.140;11.588;2022-07-03T04:00:29;1.73;;;1.60;;
42420;SDS011;28063;48.140;11.588;2022-07-03T04:02:55;1.75;;;1.65;;
42420;SDS011;28063;48.140;11.588;2022-07-03T04:05:21;2.00;;;1.70;;
42420;SDS011;28063;48.140;11.588;2022-07-03T04:07:46;1.27;;;1.17;;
42420;SDS011;28063;48.140;11.588;2022-07-03T04:10:12;1.70;;;1.60;;
42420;SDS011;28063;48.140;11.588;2022-07-03T04:12:38;3.70;;;2.17;;
42420;SDS011;28063;48.140;11.588;2022-07-03T04:15:03;1.52;;;1.42;;
42420;SDS011;28063;48.140;11.588;2022-07-03T04:17:29;1.50;;;1.40;;
42420;SDS011;28063;48.140;11.588;2022-07-03T04:19:55;1.90;;;1.35;;
42420;SDS011;28063;48.140;11.588;2022-07-03T04:22:21;4.03;;;1.50;;
42420;SDS011;28063;48.140;11.588;2022-07-03T04:24:46;1.83;;;1.73;;
42420;SDS011;28063;48.140;11.588;2022-07-03T04:27:12;2.75;;;1.60;;
42420;SDS011;28063;48.140;11.588;2022-07-03T04:29:38;3.10;;;1.90;;
42420;SDS011;28063;48.140;11.588;2022-07-03T04:32:03;1.90;;;1.80;;
42420;SDS011;28063;48.140;11.588;2022-07-03T04:34:29;2.33;;;1.70;;
42420;SDS011;28063;48.140;11.588;2022-07-03T04:36:55;2.25;;;1.88;;
42420;SDS011;28063;48.140;11.588;2022-07-03T04:39:21;1.65;;;1.55;;
42420;SDS011;28063;48.140;11.588;2022-07-03T04:41:46;2.47;;;1.80;;
42420;SDS011;28063;48.140;11.588;2022-07-03T04:44:12;2.30;;;1.90;;
42420;SDS011;28063;48.140;11.588;2022-07-03T04:46:38;1.92;;;1.83;;
42420;SDS011;28063;48.140;11.588;2022-07-03T04:49:05;1.35;;;1.30;;
42420;SDS011;28063;48.140;11.588;2022-07-03T04:51:30;1.60;;;1.50;;
42420;SDS011;28063;48.140;11.588;2022-07-03T04:53:56;2.25;;;1.50;;
42420;SDS011;28063;48.140;11.588;2022-07-03T04:56:22;2.55;;;1.38;;
42420;SDS011;28063;48.140;11.588;2022-07-03T04:58:47;1.70;;;1.60;;
42420;SDS011;28063;48.140;11.588;2022-07-03T05:01:13;1.85;;;1.70;;
42420;SDS011;28063;48.140;11.588;2022-07-03T05:03:38;1.48;;;1.38;;
42420;SDS011;28063;48.140;11.588;2022-07-03T05:06:04;2.00;;;1.70;;
42420;SDS011;28063;48.140;11.588;2022-07-03T05:08:30;1.70;;;1.60;;
42420;SDS011;28063;48.140;11.588;2022-07-03T05:10:55;1.77;;;1.67;;
42420;SDS011;28063;48.140;11.588;2022-07-03T05:13:21;1.20;;;1.20;;
42420;SDS011;28063;48.140;11.588;2022-07-03T05:15:47;1.40;;;1.30;;
42420;SDS011;28063;48.140;11.588;2022-07-03T05:18:13;1.30;;;1.20;;
42420;SDS011;28063;48.140;11.588;2022-07-03T05:20:38;0.73;;;0.73;;
42420;SDS011;28063;48.140;11.588;2022-07-03T05:23:04;0.95;;;0.93;;
42420;SDS011;28063;48.140;11.588;2022-07-03T05:25:30;1.17;;;1.10;;
42420;SDS011;28063;48.140;11.588;2022-07-03T05:27:57;1.00;;;1.00;;
42420;SDS011;28063;48.140;11.588;2022-07-03T05:30:23;2.50;;;1.20;;
42420;SDS011;28063;48.140;11.588;2022-07-03T05:32:50;1.10;;;1.08;;
42420;SDS011;28063;48.140;11.588;2022-07-03T05:35:16;0.85;;;0.85;;
42420;SDS011;28063;48.140;11.588;2022-07-03T05:37:42;1.65;;;1.52;;
42420;SDS011;28063;48.140;11.588;2022-07-03T05:40:08;1.13;;;1.10;;
42420;SDS011;28063;48.140;11.588;2022-07-03T05:42:34;1.17;;;1.17;;
42420;SDS011;28063;48.140;11.588;2022-07-03T05:45:00;1.10;;;1.10;;
42420;SDS011;28063;48.140;11.588;2022-07-03T05:47:27;2.38;;;1.25;;
42420;SDS011;28063;48.140;11.588;2022-07-03T05:49:53;1.10;;;1.10;;
42420;SDS011;28063;48.140;11.588;2022-07-03T05:52:19;1.48;;;1.20;;
42420;SDS011;28063;48.140;11.588;2022-07-03T05:54:45;1.10;;;1.10;;
42420;SDS011;28063;48.140;11.588;2022-07-03T05:57:11;1.00;;;1.00;;
42420;SDS011;28063;48.140;11.588;2022-07-03T05:59:37;1.60;;;1.20;;
42420;SDS011;28063;48.140;11.588;2022-07-03T06:02:03;1.10;;;1.10;;
42420;SDS011;28063;48.140;11.588;2022-07-03T06:04:29;1.13;;;1.10;;
42420;SDS011;28063;48.140;11.588;2022-07-03T06:06:54;1.38;;;1.30;;
42420;SDS011;28063;48.140;11.588;2022-07-03T06:09:20;1.20;;;1.20;;
42420;SDS011;28063;48.140;11.588;2022-07-03T06:11:49;1.20;;;1.10;;
42420;SDS011;28063;48.140;11.588;2022-07-03T06:14:15;1.00;;;1.00;;
42420;SDS011;28063;48.140;11.588;2022-07-03T06:16:41;1.50;;;1.40;;
42420;SDS011;28063;48.140;11.588;2022-07-03T06:19:07;1.02;;;1.02;;
42420;SDS011;28063;48.140;11.588;2022-07-03T06:21:33;1.60;;;1.50;;
42420;SDS011;28063;48.140;11.588;2022-07-03T06:23:58;1.23;;;1.23;;
42420;SDS011;28063;48.140;11.588;2022-07-03T06:26:25;1.15;;;1.15;;
42420;SDS011;28063;48.140;11.588;2022-07-03T06:28:51;1.23;;;1.23;;
42420;SDS011;28063;48.140;11.588;2022-07-03T06:31:16;1.10;;;1.02;;
42420;SDS011;28063;48.140;11.588;2022-07-03T06:33:42;1.13;;;1.13;;
42420;SDS011;28063;48.140;11.588;2022-07-03T06:36:08;1.27;;;1.27;;
42420;SDS011;28063;48.140;11.588;2022-07-03T06:38:34;1.27;;;1.27;;
42420;SDS011;28063;48.140;11.588;2022-07-03T06:40:59;1.23;;;1.23;;
42420;SDS011;28063;48.140;11.588;2022-07-03T06:43:25;1.35;;;1.25;;
42420;SDS011;28063;48.140;11.588;2022-07-03T06:45:51;1.42;;;1.42;;
42420;SDS011;28063;48.140;11.588;2022-07-03T06:48:16;1.52;;;1.27;;
42420;SDS011;28063;48.140;11.588;2022-07-03T06:50:42;1.52;;;1.42;;
42420;SDS011;28063;48.140;11.588;2022-07-03T06:53:07;1.60;;;1.50;;
42420;SDS011;28063;48.140;11.588;2022-07-03T06:55:34;1.63;;;1.13;;
42420;SDS011;28063;48.140;11.588;2022-07-03T06:58:00;2.97;;;1.20;;
42420;SDS011;28063;48.140;11.588;2022-07-03T07:00:25;1.10;;;1.10;;
42420;SDS011;28063;48.140;11.588;2022-07-03T07:02:51;1.67;;;1.05;;
42420;SDS011;28063;48.140;11.588;2022-07-03T07:05:17;1.48;;;1.20;;
42420;SDS011;28063;48.140;11.588;2022-07-03T07:07:42;1.30;;;1.20;;
42420;SDS011;28063;48.140;11.588;2022-07-03T07:10:08;1.50;;;1.40;;
42420;SDS011;28063;48.140;11.588;2022-07-03T07:12:34;1.20;;;1.20;;
42420;SDS011;28063;48.140;11.588;2022-07-03T07:15:00;1.10;;;1.10;;
42420;SDS011;28063;48.140;11.588;2022-07-03T07:17:25;1.50;;;1.30;;
42420;SDS011;28063;48.140;11.588;2022-07-03T07:19:51;1.20;;;1.20;;
42420;SDS011;28063;48.140;11.588;2022-07-03T07:22:19;2.53;;;1.67;;
42420;SDS011;28063;48.140;11.588;2022-07-03T07:24:44;1.45;;;1.35;;
42420;SDS011;28063;48.140;11.588;2022-07-03T07:27:10;1.50;;;1.40;;
42420;SDS011;28063;48.140;11.588;2022-07-03T07:29:35;1.38;;;1.27;;
42420;SDS011;28063;48.140;11.588;2022-07-03T07:32:01;2.88;;;1.27;;
42420;SDS011;28063;48.140;11.588;2022-07-03T07:34:27;2.13;;;1.70;;
42420;SDS011;28063;48.140;11.588;2022-07-03T07:36:53;1.48;;;1.45;;
42420;SDS011;28063;48.140;11.588;2022-07-03T07:39:18;1.08;;;1.08;;
42420;SDS011;28063;48.140;11.588;2022-07-03T07:41:44;1.50;;;1.40;;
42420;SDS011;28063;48.140;11.588;2022-07-03T07:44:10;1.10;;;1.10;;
42420;SDS011;28063;48.140;11.588;2022-07-03T07:46:35;3.10;;;1.50;;
42420;SDS011;28063;48.140;11.588;2022-07-03T07:49:01;1.17;;;1.15;;
42420;SDS011;28063;48.140;11.588;2022-07-03T07:51:27;1.35;;;1.25;;
42420;SDS011;28063;48.140;11.588;2022-07-03T07:53:52;3.75;;;1.60;;
42420;SDS011;28063;48.140;11.588;2022-07-03T07:56:22;1.50;;;1.10;;
42420;SDS011;28063;48.140;11.588;2022-07-03T07:58:48;2.28;;;1.27;;
42420;SDS011;28063;48.140;11.588;2022-07-03T08:01:14;5.22;;;1.85;;
42420;SDS011;28063;48.140;11.588;2022-07-03T08:03:58;0.98;;;0.98;;
42420;SDS011;28063;48.140;11.588;2022-07-03T08:06:42;2.35;;;1.30;;
42420;SDS011;28063;48.140;11.588;2022-07-03T08:09:08;1.40;;;1.30;;
42420;SDS011;28063;48.140;11.588;2022-07-03T08:11:33;0.80;;;0.80;;
42420;SDS011;28063;48.140;11.588;2022-07-03T08:13:59;1.25;;;1.20;;
42420;SDS011;28063;48.140;11.588;2022-07-03T08:16:24;1.30;;;1.20;;
42420;SDS011;28063;48.140;11.588;2022-07-03T08:18:50;1.30;;;1.20;;
42420;SDS011;28063;48.140;11.588;2022-07-03T08:21:17;2.25;;;1.10;;
42420;SDS011;28063;48.140;11.588;2022-07-03T08:23:43;1.10;;;1.10;;
42420;SDS011;28063;48.140;11.588;2022-07-03T08:26:09;1.20;;;1.10;;
42420;SDS011;28063;48.140;11.588;2022-07-03T08:28:34;0.98;;;0.98;;
42420;SDS011;28063;48.140;11.588;2022-07-03T08:31:00;1.52;;;1.40;;
42420;SDS011;28063;48.140;11.588;2022-07-03T08:33:25;1.02;;;1.00;;
42420;SDS011;28063;48.140;11.588;2022-07-03T08:35:51;1.25;;;1.20;;
42420;SDS011;28063;48.140;11.588;2022-07-03T08:38:17;3.40;;;1.00;;
42420;SDS011;28063;48.140;11.588;2022-07-03T08:40:43;0.90;;;0.90;;
42420;SDS011;28063;48.140;11.588;2022-07-03T08:43:11;1.17;;;0.88;;
42420;SDS011;28063;48.140;11.588;2022-07-03T08:45:37;1.15;;;1.13;;
42420;SDS011;28063;48.140;11.588;2022-07-03T08:48:04;1.55;;;1.20;;
42420;SDS011;28063;48.140;11.588;2022-07-03T08:50:32;4.82;;;1.40;;
42420;SDS011;28063;48.140;11.588;2022-07-03T08:52:59;2.67;;;1.20;;
42420;SDS011;28063;48.140;11.588;2022-07-03T08:55:28;0.80;;;0.80;;
42420;SDS011;28063;48.140;11.588;2022-07-03T08:57:54;0.70;;;0.70;;
42420;SDS011;28063;48.140;11.588;2022-07-03T09:00:23;0.82;;;0.82;;
42420;SDS011;28063;48.140;11.588;2022-07-03T09:02:51;1.00;;;1.00;;
42420;SDS011;28063;48.140;11.588;2022-07-03T09:05:17;1.23;;;1.08;;
42420;SDS011;28063;48.140;11.588;2022-07-03T09:07:44;1.10;;;1.00;;
42420;SDS011;28063;48.140;11.588;2022-07-03T09:10:11;0.90;;;0.88;;
42420;SDS011;28063;48.140;11.588;2022-07-03T09:12:39;1.10;;;1.00;;
42420;SDS011;28063;48.140;11.588;2022-07-03T09:15:06;0.68;;;0.68;;
42420;SDS011;28063;48.140;11.588;2022-07-03T09:17:33;0.70;;;0.70;;
42420;SDS011;28063;48.140;11.588;2022-07-03T09:20:03;1.40;;;1.00;;
42420;SDS011;28063;48.140;11.588;2022-07-03T09:22:32;1.30;;;0.93;;
42420;SDS011;28063;48.140;11.588;2022-07-03T09:25:12;1.27;;;1.00;;
42420;SDS011;28063;48.140;11.588;2022-07-03T09:27:49;2.70;;;0.98;;
42420;SDS011;28063;48.140;11.588;2022-07-03T09:30:16;0.90;;;0.90;;
42420;SDS011;28063;48.140;11.588;2022-07-03T09:32:45;2.20;;;0.80;;
42420;SDS011;28063;48.140;11.588;2022-07-03T09:35:12;1.90;;;0.98;;
42420;SDS011;28063;48.140;11.588;2022-07-03T09:37:59;3.45;;;0.90;;
42420;SDS011;28063;48.140;11.588;2022-07-03T09:40:28;5.78;;;1.33;;
42420;SDS011;28063;48.140;11.588;2022-07-03T09:43:14;1.00;;;1.00;;
42420;SDS011;28063;48.140;11.588;2022-07-03T09:45:53;0.77;;;0.77;;
42420;SDS011;28063;48.140;11.588;2022-07-03T09:48:29;1.95;;;1.00;;
42420;SDS011;28063;48.140;11.588;2022-07-03T09:53:58;1.20;;;0.90;;
42420;SDS011;28063;48.140;11.588;2022-07-03T09:56:27;0.98;;;0.82;;
42420;SDS011;28063;48.140;11.588;2022-07-03T10:04:35;2.05;;;0.95;;
42420;SDS011;28063;48.140;11.588;2022-07-03T10:09:30;0.98;;;0.85;;
42420;SDS011;28063;48.140;11.588;2022-07-03T10:12:00;1.50;;;0.80;;
42420;SDS011;28063;48.140;11.588;2022-07-03T10:14:29;1.33;;;0.75;;
42420;SDS011;28063;48.140;11.588;2022-07-03T10:16:56;0.75;;;0.75;;
42420;SDS011;28063;48.140;11.588;2022-07-03T10:19:25;2.20;;;1.20;;
42420;SDS011;28063;48.140;11.588;2022-07-03T10:22:01;5.57;;;2.90;;
42420;SDS011;28063;48.140;11.588;2022-07-03T10:24:31;1.50;;;1.40;;
42420;SDS011;28063;48.140;11.588;2022-07-03T10:26:57;0.80;;;0.80;;
42420;SDS011;28063;48.140;11.588;2022-07-03T10:29:27;5.38;;;1.48;;
42420;SDS011;28063;48.140;11.588;2022-07-03T10:31:53;1.33;;;1.10;;
42420;SDS011;28063;48.140;11.588;2022-07-03T10:34:20;0.93;;;0.93;;
42420;SDS011;28063;48.140;11.588;2022-07-03T10:36:49;1.15;;;1.05;;
42420;SDS011;28063;48.140;11.588;2022-07-03T10:42:05;2.55;;;2.35;;
42420;SDS011;28063;48.140;11.588;2022-07-03T10:45:07;1.83;;;1.17;;
42420;SDS011;28063;48.140;11.588;2022-07-03T10:52:43;1.05;;;0.98;;
42420;SDS011;28063;48.140;11.588;2022-07-03T10:55:10;0.82;;;0.82;;
42420;SDS011;28063;48.140;11.588;2022-07-03T10:57:37;1.42;;;1.08;;
42420;SDS011;28063;48.140;11.588;2022-07-03T11:00:04;0.93;;;0.93;;
42420;SDS011;28063;48.140;11.588;2022-07-03T11:02:38;1.13;;;1.00;;
42420;SDS011;28063;48.140;11.588;2022-07-03T11:13:17;1.00;;;1.00;;
42420;SDS011;28063;48.140;11.588;2022-07-03T11:15:47;0.85;;;0.77;;
42420;SDS011;28063;48.140;11.588;2022-07-03T11:18:24;1.00;;;1.00;;
42420;SDS011;28063;48.140;11.588;2022-07-03T11:25:51;1.00;;;0.90;;
42420;SDS011;28063;48.140;11.588;2022-07-03T11:31:29;0.90;;;0.90;;
42420;SDS011;28063;48.140;11.588;2022-07-03T11:33:56;0.82;;;0.73;;
42420;SDS011;28063;48.140;11.588;2022-07-03T11:36:25;0.70;;;0.70;;
42420;SDS011;28063;48.140;11.588;2022-07-03T11:43:57;0.73;;;0.70;;
42420;SDS011;28063;48.140;11.588;2022-07-03T11:46:25;1.20;;;1.10;;
42420;SDS011;28063;48.140;11.588;2022-07-03T11:49:10;1.15;;;1.02;;
42420;SDS011;28063;48.140;11.588;2022-07-03T11:52:03;0.98;;;0.98;;
42420;SDS011;28063;48.140;11.588;2022-07-03T11:54:31;0.80;;;0.80;;
42420;SDS011;28063;48.140;11.588;2022-07-03T11:56:59;1.20;;;0.98;;
42420;SDS011;28063;48.140;11.588;2022-07-03T11:59:25;0.73;;;0.73;;
42420;SDS011;28063;48.140;11.588;2022-07-03T12:01:52;0.90;;;0.90;;
42420;SDS011;28063;48.140;11.588;2022-07-03T12:04:27;1.02;;;1.00;;
42420;SDS011;28063;48.140;11.588;2022-07-03T12:06:55;0.75;;;0.75;;
42420;SDS011;28063;48.140;11.588;2022-07-03T12:09:23;0.60;;;0.60;;
42420;SDS011;28063;48.140;11.588;2022-07-03T12:11:52;0.93;;;0.80;;
42420;SDS011;28063;48.140;11.588;2022-07-03T12:17:17;0.80;;;0.77;;
42420;SDS011;28063;48.140;11.588;2022-07-03T12:22:15;1.10;;;1.00;;
42420;SDS011;28063;48.140;11.588;2022-07-03T12:25:01;0.80;;;0.80;;
42420;SDS011;28063;48.140;11.588;2022-07-03T12:30:03;0.80;;;0.80;;
42420;SDS011;28063;48.140;11.588;2022-07-03T12:32:30;0.80;;;0.77;;
42420;SDS011;28063;48.140;11.588;2022-07-03T12:34:56;0.70;;;0.70;;
42420;SDS011;28063;48.140;11.588;2022-07-03T12:37:32;2.38;;;0.80;;
42420;SDS011;28063;48.140;11.588;2022-07-03T12:39:58;1.77;;;0.80;;
42420;SDS011;28063;48.140;11.588;2022-07-03T12:42:24;1.02;;;0.90;;
42420;SDS011;28063;48.140;11.588;2022-07-03T12:45:02;0.90;;;0.90;;
42420;SDS011;28063;48.140;11.588;2022-07-03T12:47:30;1.08;;;0.98;;
42420;SDS011;28063;48.140;11.588;2022-07-03T12:49:57;3.25;;;0.88;;
42420;SDS011;28063;48.140;11.588;2022-07-03T12:52:51;1.50;;;1.10;;
42420;SDS011;28063;48.140;11.588;2022-07-03T12:55:28;0.85;;;0.80;;
42420;SDS011;28063;48.140;11.588;2022-07-03T12:58:13;0.52;;;0.52;;
42420;SDS011;28063;48.140;11.588;2022-07-03T13:00:59;1.83;;;1.20;;
42420;SDS011;28063;48.140;11.588;2022-07-03T13:03:29;1.52;;;1.13;;
42420;SDS011;28063;48.140;11.588;2022-07-03T13:05:56;0.80;;;0.80;;
42420;SDS011;28063;48.140;11.588;2022-07-03T13:08:22;2.92;;;1.52;;
42420;SDS011;28063;48.140;11.588;2022-07-03T13:10:58;1.85;;;0.98;;
42420;SDS011;28063;48.140;11.588;2022-07-03T13:13:25;0.88;;;0.88;;
42420;SDS011;28063;48.140;11.588;2022-07-03T13:15:51;0.73;;;0.73;;
42420;SDS011;28063;48.140;11.588;2022-07-03T13:18:17;0.73;;;0.70;;
42420;SDS011;28063;48.140;11.588;2022-07-03T13:20:43;1.95;;;1.13;;
42420;SDS011;28063;48.140;11.588;2022-07-03T13:23:09;2.13;;;1.35;;
42420;SDS011;28063;48.140;11.588;2022-07-03T13:25:35;0.85;;;0.85;;
42420;SDS011;28063;48.140;11.588;2022-07-03T13:28:11;0.70;;;0.70;;
42420;SDS011;28063;48.140;11.588;2022-07-03T13:30:39;1.30;;;1.00;;
42420;SDS011;28063;48.140;11.588;2022-07-03T13:33:07;0.80;;;0.80;;
42420;SDS011;28063;48.140;11.588;2022-07-03T13:35:33;2.78;;;1.00;;
42420;SDS011;28063;48.140;11.588;2022-07-03T13:38:00;1.17;;;1.02;;
42420;SDS011;28063;48.140;11.588;2022-07-03T13:40:25;1.48;;;1.38;;
42420;SDS011;28063;48.140;11.588;2022-07-03T13:42:51;0.93;;;0.80;;
42420;SDS011;28063;48.140;11.588;2022-07-03T13:45:17;1.48;;;1.10;;
42420;SDS011;28063;48.140;11.588;2022-07-03T13:47:43;1.38;;;0.85;;
42420;SDS011;28063;48.140;11.588;2022-07-03T13:50:09;1.50;;;1.00;;
42420;SDS011;28063;48.140;11.588;2022-07-03T13:52:35;1.65;;;1.17;;
42420;SDS011;28063;48.140;11.588;2022-07-03T13:55:01;2.25;;;1.00;;
42420;SDS011;28063;48.140;11.588;2022-07-03T13:57:28;1.10;;;1.10;;
42420;SDS011;28063;48.140;11.588;2022-07-03T13:59:54;1.08;;;1.08;;
42420;SDS011;28063;48.140;11.588;2022-07-03T14:02:19;3.33;;;1.13;;
42420;SDS011;28063;48.140;11.588;2022-07-03T14:04:45;1.45;;;1.35;;
42420;SDS011;28063;48.140;11.588;2022-07-03T14:07:10;1.80;;;1.00;;
42420;SDS011;28063;48.140;11.588;2022-07-03T14:09:36;1.52;;;1.10;;
42420;SDS011;28063;48.140;11.588;2022-07-03T14:12:02;1.42;;;1.10;;
42420;SDS011;28063;48.140;11.588;2022-07-03T14:14:28;3.88;;;1.35;;
42420;SDS011;28063;48.140;11.588;2022-07-03T14:16:54;1.40;;;1.30;;
42420;SDS011;28063;48.140;11.588;2022-07-03T14:19:19;2.15;;;1.30;;
42420;SDS011;28063;48.140;11.588;2022-07-03T14:21:45;4.53;;;1.30;;
42420;SDS011;28063;48.140;11.588;2022-07-03T14:24:10;2.15;;;0.90;;
42420;SDS011;28063;48.140;11.588;2022-07-03T14:26:36;3.10;;;1.30;;
42420;SDS011;28063;48.140;11.588;2022-07-03T14:29:20;2.17;;;1.20;;
42420;SDS011;28063;48.140;11.588;2022-07-03T14:32:05;3.85;;;1.30;;
42420;SDS011;28063;48.140;11.588;2022-07-03T14:34:49;1.67;;;1.00;;
42420;SDS011;28063;48.140;11.588;2022-07-03T14:37:15;1.08;;;0.98;;
42420;SDS011;28063;48.140;11.588;2022-07-03T14:39:44;2.05;;;1.17;;
42420;SDS011;28063;48.140;11.588;2022-07-03T14:42:10;1.52;;;1.40;;
42420;SDS011;28063;48.140;11.588;2022-07-03T14:44:36;1.00;;;0.90;;
42420;SDS011;28063;48.140;11.588;2022-07-03T14:47:02;1.85;;;1.45;;
42420;SDS011;28063;48.140;11.588;2022-07-03T14:49:28;1.10;;;0.88;;
42420;SDS011;28063;48.140;11.588;2022-07-03T14:51:53;1.42;;;1.40;;
42420;SDS011;28063;48.140;11.588;2022-07-03T14:54:19;1.60;;;1.13;;
42420;SDS011;28063;48.140;11.588;2022-07-03T14:56:55;1.33;;;1.23;;
42420;SDS011;28063;48.140;11.588;2022-07-03T15:02:19;1.25;;;1.05;;
42420;SDS011;28063;48.140;11.588;2022-07-03T15:07:34;1.20;;;1.20;;
42420;SDS011;28063;48.140;11.588;2022-07-03T15:10:13;1.40;;;1.35;;
42420;SDS011;28063;48.140;11.588;2022-07-03T15:12:43;1.42;;;1.30;;
42420;SDS011;28063;48.140;11.588;2022-07-03T15:15:14;1.65;;;1.55;;
42420;SDS011;28063;48.140;11.588;2022-07-03T15:17:41;3.13;;;1.40;;
42420;SDS011;28063;48.140;11.588;2022-07-03T15:20:08;2.47;;;1.55;;
42420;SDS011;28063;48.140;11.588;2022-07-03T15:22:41;3.58;;;1.55;;
42420;SDS011;28063;48.140;11.588;2022-07-03T15:25:09;2.50;;;1.50;;
42420;SDS011;28063;48.140;11.588;2022-07-03T15:27:36;1.70;;;1.60;;
42420;SDS011;28063;48.140;11.588;2022-07-03T15:30:02;1.52;;;1.42;;
42420;SDS011;28063;48.140;11.588;2022-07-03T15:32:29;1.77;;;1.20;;
42420;SDS011;28063;48.140;11.588;2022-07-03T15:34:55;1.33;;;1.10;;
42420;SDS011;28063;48.140;11.588;2022-07-03T15:48:52;1.77;;;1.25;;
42420;SDS011;28063;48.140;11.588;2022-07-03T15:51:40;3.92;;;2.85;;
42420;SDS011;28063;48.140;11.588;2022-07-03T15:54:13;3.10;;;2.70;;
42420;SDS011;28063;48.140;11.588;2022-07-03T15:56:48;3.30;;;2.13;;
42420;SDS011;28063;48.140;11.588;2022-07-03T15:59:20;4.75;;;2.88;;
42420;SDS011;28063;48.140;11.588;2022-07-03T16:01:52;2.55;;;1.95;;
42420;SDS011;28063;48.140;11.588;2022-07-03T16:07:27;2.72;;;1.98;;
42420;SDS011;28063;48.140;11.588;2022-07-03T16:09:54;5.38;;;3.25;;
42420;SDS011;28063;48.140;11.588;2022-07-03T16:12:22;3.00;;;2.08;;
42420;SDS011;28063;48.140;11.588;2022-07-03T16:14:50;2.03;;;1.92;;
42420;SDS011;28063;48.140;11.588;2022-07-03T16:17:16;2.28;;;2.03;;
42420;SDS011;28063;48.140;11.588;2022-07-03T16:19:44;2.90;;;2.22;;
42420;SDS011;28063;48.140;11.588;2022-07-03T16:22:11;3.08;;;2.20;;
42420;SDS011;28063;48.140;11.588;2022-07-03T16:24:38;2.55;;;1.88;;
42420;SDS011;28063;48.140;11.588;2022-07-03T16:27:05;3.17;;;2.95;;
42420;SDS011;28063;48.140;11.588;2022-07-03T16:29:31;4.85;;;2.67;;
42420;SDS011;28063;48.140;11.588;2022-07-03T16:31:58;2.58;;;2.38;;
42420;SDS011;28063;48.140;11.588;2022-07-03T16:36:56;5.63;;;2.95;;
42420;SDS011;28063;48.140;11.588;2022-07-03T16:39:33;2.05;;;1.48;;